createdAt,value
2017-09-22T00:01:26.973Z,6.00
2017-09-22T00:03:57.546Z,6.67
2017-09-22T00:06:28.327Z,6.30
2017-09-22T00:08:58.349Z,8.87
2017-09-22T00:11:28.306Z,6.25
2017-09-22T00:13:59.475Z,5.65
2017-09-22T00:16:30.367Z,5.90
2017-09-22T00:19:00.491Z,6.90
2017-09-22T00:21:30.279Z,7.47
2017-09-22T00:24:00.041Z,5.97
2017-09-22T00:26:30.222Z,6.18
2017-09-22T00:29:00.647Z,6.55
2017-09-22T00:31:30.265Z,6.47
2017-09-22T00:34:01.181Z,5.43
2017-09-22T00:36:31.467Z,5.80
2017-09-22T00:39:01.284Z,5.32
2017-09-22T00:41:31.776Z,8.48
2017-09-22T00:44:03.021Z,6.18
2017-09-22T00:46:33.315Z,9.00
2017-09-22T00:49:03.445Z,5.55
2017-09-22T00:51:34.858Z,4.87
2017-09-22T00:54:04.543Z,8.73
2017-09-22T00:56:36.080Z,6.60
2017-09-22T00:59:05.853Z,7.60
2017-09-22T01:01:35.921Z,6.20
2017-09-22T01:04:06.583Z,6.07
2017-09-22T01:06:36.280Z,6.60
2017-09-22T01:09:06.683Z,8.15
2017-09-22T01:11:36.809Z,6.00
2017-09-22T01:14:06.636Z,5.32
2017-09-22T01:16:36.985Z,7.80
2017-09-22T01:19:07.182Z,5.00
2017-09-22T01:21:37.948Z,5.28
2017-09-22T01:24:08.090Z,4.50
2017-09-22T01:26:37.847Z,5.30
2017-09-22T01:29:09.075Z,6.97
2017-09-22T01:31:39.395Z,4.87
2017-09-22T01:34:09.470Z,4.40
2017-09-22T01:36:40.975Z,6.40
2017-09-22T01:39:10.916Z,5.93
2017-09-22T01:41:41.721Z,4.87
2017-09-22T01:44:12.215Z,5.53
2017-09-22T01:46:42.474Z,6.03
2017-09-22T01:49:13.928Z,4.12
2017-09-22T01:51:44.203Z,4.33
2017-09-22T01:54:14.587Z,5.75
2017-09-22T01:56:44.593Z,7.10
2017-09-22T01:59:15.125Z,5.53
2017-09-22T02:01:45.190Z,4.40
2017-09-22T02:04:15.083Z,4.70
2017-09-22T02:06:45.170Z,5.10
2017-09-22T02:09:15.253Z,4.60
2017-09-22T02:11:44.914Z,4.43
2017-09-22T02:14:16.668Z,4.57
2017-09-22T02:16:46.813Z,4.20
2017-09-22T02:19:16.449Z,7.10
2017-09-22T02:21:46.402Z,4.30
2017-09-22T02:24:16.023Z,4.43
2017-09-22T02:26:45.614Z,6.60
2017-09-22T02:29:15.693Z,4.60
2017-09-22T02:31:45.787Z,5.40
2017-09-22T02:34:16.267Z,4.00
2017-09-22T02:36:47.669Z,4.23
2017-09-22T02:39:18.432Z,5.30
2017-09-22T02:41:48.583Z,5.30
2017-09-22T02:44:19.349Z,4.20
2017-09-22T02:46:49.399Z,3.72
2017-09-22T02:49:19.895Z,4.80
2017-09-22T02:51:50.103Z,4.45
2017-09-22T02:54:19.915Z,5.75
2017-09-22T02:56:50.461Z,4.70
2017-09-22T02:59:20.953Z,4.90
2017-09-22T03:01:50.838Z,5.43
2017-09-22T03:04:22.058Z,4.68
2017-09-22T03:06:52.383Z,4.65
2017-09-22T03:09:23.011Z,5.12
2017-09-22T03:11:53.146Z,3.97
2017-09-22T03:14:23.516Z,6.90
2017-09-22T03:16:54.820Z,4.00
2017-09-22T03:19:24.797Z,6.30
2017-09-22T03:21:55.207Z,3.90
2017-09-22T03:24:25.521Z,5.82
2017-09-22T03:26:55.591Z,4.28
2017-09-22T03:29:25.883Z,6.03
2017-09-22T03:31:56.410Z,4.60
2017-09-22T03:34:28.172Z,4.80
2017-09-22T03:36:58.206Z,5.95
2017-09-22T03:39:28.541Z,4.90
2017-09-22T03:41:59.226Z,8.05
2017-09-22T03:44:29.384Z,6.40
2017-09-22T03:46:59.587Z,7.77
2017-09-22T03:49:29.579Z,4.37
2017-09-22T03:52:00.226Z,4.50
2017-09-22T03:54:35.323Z,7.22
2017-09-22T03:57:05.657Z,5.20
2017-09-22T03:59:35.918Z,4.90
2017-09-22T04:02:06.618Z,5.55
2017-09-22T04:04:37.340Z,4.68
2017-09-22T04:07:09.466Z,5.40
2017-09-22T04:09:39.788Z,4.60
2017-09-22T04:12:10.161Z,4.95
2017-09-22T04:14:41.647Z,5.60
2017-09-22T04:17:11.321Z,4.28
2017-09-22T04:19:41.559Z,5.37
2017-09-22T04:22:12.288Z,6.55
2017-09-22T04:24:42.815Z,5.15
2017-09-22T04:27:13.181Z,6.15
2017-09-22T04:29:43.700Z,5.55
2017-09-22T04:32:14.699Z,6.20
2017-09-22T04:34:45.466Z,5.35
2017-09-22T04:37:15.187Z,7.12
2017-09-22T04:39:45.603Z,5.53
2017-09-22T04:42:15.981Z,4.70
2017-09-22T04:44:46.584Z,4.20
2017-09-22T04:47:16.701Z,3.93
2017-09-22T04:49:46.710Z,6.65
2017-09-22T04:52:16.867Z,4.45
2017-09-22T04:54:46.902Z,5.25
2017-09-22T04:57:16.647Z,4.55
2017-09-22T04:59:46.370Z,4.30
2017-09-22T05:02:16.281Z,5.82
2017-09-22T05:04:46.817Z,5.80
2017-09-22T05:07:17.073Z,5.78
2017-09-22T05:09:46.882Z,4.97
2017-09-22T05:12:16.781Z,6.90
2017-09-22T05:14:46.867Z,4.55
2017-09-22T05:17:16.639Z,4.70
2017-09-22T05:19:47.358Z,4.60
2017-09-22T05:22:17.273Z,5.07
2017-09-22T05:24:47.067Z,5.47
2017-09-22T05:27:17.191Z,5.20
2017-09-22T05:29:46.974Z,6.40
2017-09-22T05:32:17.430Z,4.37
2017-09-22T05:34:47.484Z,4.00
2017-09-22T05:37:18.116Z,5.30
2017-09-22T05:39:47.978Z,7.67
2017-09-22T05:42:18.559Z,8.47
2017-09-22T05:44:48.403Z,4.60
2017-09-22T05:47:19.177Z,8.60
2017-09-22T05:49:49.505Z,6.20
2017-09-22T05:52:19.549Z,5.60
2017-09-22T05:54:50.383Z,5.20
2017-09-22T05:57:20.147Z,5.78
2017-09-22T05:59:50.109Z,5.60
2017-09-22T06:02:20.663Z,5.45
2017-09-22T06:04:51.174Z,5.62
2017-09-22T06:07:22.043Z,7.07
2017-09-22T06:09:51.878Z,5.30
2017-09-22T06:12:21.650Z,4.40
2017-09-22T06:14:51.442Z,5.18
2017-09-22T06:17:22.136Z,4.93
2017-09-22T06:19:52.228Z,4.00
2017-09-22T06:22:21.990Z,5.10
2017-09-22T06:24:51.749Z,4.83
2017-09-22T06:27:22.005Z,6.37
2017-09-22T06:29:52.728Z,7.30
2017-09-22T06:32:22.576Z,5.28
2017-09-22T06:34:52.593Z,5.60
2017-09-22T06:37:22.362Z,4.35
2017-09-22T06:39:52.365Z,4.70
2017-09-22T06:42:22.894Z,4.20
2017-09-22T06:44:53.994Z,5.30
2017-09-22T06:47:24.226Z,6.12
2017-09-22T06:49:54.097Z,5.30
2017-09-22T06:52:24.000Z,5.20
2017-09-22T06:54:53.771Z,4.60
2017-09-22T06:57:23.504Z,5.70
2017-09-22T06:59:53.554Z,4.10
2017-09-22T07:02:23.387Z,5.40
2017-09-22T07:04:53.150Z,3.60
2017-09-22T07:07:23.291Z,4.65
2017-09-22T07:09:53.158Z,4.12
2017-09-22T07:12:23.114Z,4.60
2017-09-22T07:14:53.665Z,4.20
2017-09-22T07:17:24.178Z,3.90
2017-09-22T07:19:54.267Z,4.55
2017-09-22T07:22:24.601Z,4.93
2017-09-22T07:24:55.201Z,5.15
2017-09-22T07:27:25.962Z,4.13
2017-09-22T07:29:56.716Z,6.97
2017-09-22T07:32:26.539Z,4.03
2017-09-22T07:34:56.257Z,4.10
2017-09-22T07:37:25.958Z,5.87
2017-09-22T07:39:55.960Z,4.18
2017-09-22T07:42:25.896Z,3.83
2017-09-22T07:44:55.614Z,4.10
2017-09-22T07:47:26.346Z,3.50
2017-09-22T07:49:56.151Z,6.70
2017-09-22T07:52:26.251Z,3.97
2017-09-22T07:54:56.897Z,5.80
2017-09-22T07:58:30.278Z,3.90
2017-09-22T08:01:00.932Z,7.65
2017-09-22T08:03:30.716Z,3.60
2017-09-22T08:06:01.223Z,3.42
2017-09-22T08:08:31.377Z,5.40
2017-09-22T08:11:02.022Z,3.08
2017-09-22T08:13:32.418Z,3.25
2017-09-22T08:16:02.939Z,3.47
2017-09-22T08:18:34.544Z,4.57
2017-09-22T08:21:05.453Z,5.03
2017-09-22T08:23:35.257Z,3.80
2017-09-22T08:26:05.370Z,3.72
2017-09-22T08:28:37.937Z,3.60
2017-09-22T08:31:08.086Z,3.00
2017-09-22T08:33:39.128Z,3.67
2017-09-22T08:36:09.676Z,3.10
2017-09-22T08:38:39.516Z,3.40
2017-09-22T08:42:28.914Z,3.40
2017-09-22T08:44:58.691Z,4.60
2017-09-22T08:47:28.436Z,4.37
2017-09-22T08:49:58.080Z,5.90
2017-09-22T08:52:28.848Z,7.03
2017-09-22T08:54:58.950Z,6.37
2017-09-22T08:57:29.542Z,4.40
2017-09-22T08:59:59.371Z,5.60
2017-09-22T09:02:29.878Z,4.50
2017-09-22T09:05:00.969Z,4.00
2017-09-22T09:07:31.417Z,8.63
2017-09-22T09:10:01.507Z,3.20
2017-09-22T09:12:31.447Z,4.28
2017-09-22T09:15:02.179Z,4.30
2017-09-22T09:17:32.903Z,4.40
2017-09-22T09:20:02.789Z,5.65
2017-09-22T09:22:33.602Z,3.30
2017-09-22T09:25:04.502Z,4.82
2017-09-22T09:27:34.553Z,4.45
2017-09-22T09:30:04.408Z,5.47
2017-09-22T09:32:34.168Z,4.37
2017-09-22T09:35:04.079Z,3.90
2017-09-22T09:37:34.810Z,2.85
2017-09-22T09:40:04.553Z,2.53
2017-09-22T09:42:34.428Z,4.70
2017-09-22T09:45:04.241Z,4.85
2017-09-22T09:47:33.998Z,3.45
2017-09-22T09:50:04.112Z,4.50
2017-09-22T09:52:34.582Z,3.60
2017-09-22T09:55:05.309Z,2.50
2017-09-22T09:57:35.803Z,3.50
2017-09-22T10:00:06.374Z,3.80
2017-09-22T10:02:36.105Z,3.70
2017-09-22T10:05:05.950Z,7.30
2017-09-22T10:07:36.591Z,3.50
2017-09-22T10:10:06.659Z,5.03
2017-09-22T10:12:36.360Z,3.85
2017-09-22T10:15:06.814Z,4.00
2017-09-22T10:17:36.765Z,4.18
2017-09-22T10:20:06.682Z,4.20
2017-09-22T10:22:36.452Z,2.40
2017-09-22T10:25:06.676Z,5.05
2017-09-22T10:27:36.752Z,2.40
2017-09-22T10:30:06.774Z,3.10
2017-09-22T10:32:37.291Z,3.50
2017-09-22T10:35:06.974Z,4.40
2017-09-22T10:37:36.941Z,4.43
2017-09-22T10:40:06.731Z,2.85
2017-09-22T10:42:36.500Z,2.80
2017-09-22T10:45:06.426Z,4.80
2017-09-22T10:47:36.193Z,3.15
2017-09-22T10:50:06.348Z,2.50
2017-09-22T10:52:36.013Z,4.53
2017-09-22T10:55:05.973Z,2.47
2017-09-22T10:57:35.728Z,3.10
2017-09-22T11:00:05.674Z,3.03
2017-09-22T11:02:35.682Z,4.10
2017-09-22T11:05:06.199Z,3.35
2017-09-22T11:07:35.855Z,3.97
2017-09-22T11:10:05.868Z,3.08
2017-09-22T11:12:36.182Z,3.30
2017-09-22T11:15:05.796Z,4.05
2017-09-22T11:17:35.380Z,3.10
2017-09-22T11:20:18.032Z,3.97
2017-09-22T11:22:48.732Z,3.53
2017-09-22T11:25:19.642Z,2.95
2017-09-22T11:27:49.147Z,3.42
2017-09-22T11:30:18.996Z,3.60
2017-09-22T11:32:49.379Z,3.25
2017-09-22T11:35:18.915Z,3.95
2017-09-22T11:37:48.492Z,3.60
2017-09-22T11:40:18.181Z,3.30
2017-09-22T11:42:47.983Z,3.47
2017-09-22T11:45:17.539Z,3.58
2017-09-22T11:47:47.538Z,3.50
2017-09-22T11:50:17.103Z,3.80
2017-09-22T11:52:46.671Z,3.17
2017-09-22T11:55:17.714Z,4.12
2017-09-22T11:57:47.253Z,5.15
2017-09-22T12:00:16.871Z,4.85
2017-09-22T12:02:47.043Z,3.55
2017-09-22T12:05:16.601Z,3.90
2017-09-22T12:07:46.744Z,5.15
2017-09-22T12:10:16.680Z,4.00
2017-09-22T12:12:46.466Z,4.00
2017-09-22T12:15:17.283Z,6.40
2017-09-22T12:17:47.066Z,4.20
2017-09-22T12:20:17.114Z,4.87
2017-09-22T12:22:47.407Z,3.90
2017-09-22T12:25:17.816Z,4.80
2017-09-22T12:27:47.526Z,4.70
2017-09-22T12:30:17.137Z,5.70
2017-09-22T12:32:46.805Z,3.87
2017-09-22T12:35:16.727Z,3.55
2017-09-22T12:37:46.381Z,3.70
2017-09-22T12:40:15.932Z,3.97
2017-09-22T12:42:45.551Z,4.10
2017-09-22T12:45:15.322Z,5.37
2017-09-22T12:47:45.932Z,4.15
2017-09-22T12:50:15.458Z,5.50
2017-09-22T12:52:45.784Z,4.55
2017-09-22T12:55:16.378Z,7.47
2017-09-22T12:57:45.964Z,6.40
2017-09-22T13:00:15.474Z,4.35
2017-09-22T13:02:45.077Z,4.22
2017-09-22T13:05:14.614Z,4.20
2017-09-22T13:07:44.475Z,6.00
2017-09-22T13:10:14.015Z,3.60
2017-09-22T13:12:43.557Z,4.32
2017-09-22T13:15:13.483Z,4.27
2017-09-22T13:17:43.863Z,5.67
2017-09-22T13:20:13.410Z,4.80
2017-09-22T13:22:43.740Z,4.73
2017-09-22T13:25:14.046Z,8.90
2017-09-22T13:27:45.814Z,3.80
2017-09-22T13:30:15.644Z,3.80
2017-09-22T13:32:46.010Z,4.30
2017-09-22T13:35:15.803Z,4.70
2017-09-22T13:37:45.702Z,4.40
2017-09-22T13:40:15.256Z,4.00
2017-09-22T13:42:44.920Z,5.63
2017-09-22T13:45:14.762Z,4.35
2017-09-22T13:47:45.245Z,7.62
2017-09-22T13:50:15.630Z,4.78
2017-09-22T13:52:45.160Z,5.95
2017-09-22T13:55:15.761Z,5.30
2017-09-22T13:57:45.323Z,4.25
2017-09-22T14:00:15.619Z,4.65
2017-09-22T14:02:45.900Z,5.00
2017-09-22T14:05:16.215Z,6.30
2017-09-22T14:07:46.014Z,3.87
2017-09-22T14:10:15.651Z,4.60
2017-09-22T14:12:45.196Z,5.00
2017-09-22T14:15:14.804Z,5.15
2017-09-22T14:17:44.377Z,4.40
2017-09-22T14:20:14.190Z,3.92
2017-09-22T14:22:43.743Z,4.20
2017-09-22T14:25:13.282Z,4.80
2017-09-22T14:27:42.891Z,4.10
2017-09-22T14:30:12.407Z,5.10
2017-09-22T14:34:01.729Z,4.12
2017-09-22T14:36:31.251Z,5.43
2017-09-22T14:39:01.584Z,4.07
2017-09-22T14:41:31.181Z,5.15
2017-09-22T14:44:00.996Z,5.13
2017-09-22T14:46:31.292Z,5.15
2017-09-22T14:49:00.917Z,4.30
2017-09-22T14:51:31.224Z,6.05
2017-09-22T14:54:00.821Z,4.90
2017-09-22T14:56:30.637Z,7.40
2017-09-22T14:59:00.263Z,4.00
2017-09-22T15:01:29.886Z,4.63
2017-09-22T15:03:59.446Z,4.40
2017-09-22T15:06:29.051Z,5.37
2017-09-22T15:08:58.853Z,5.33
2017-09-22T15:11:28.367Z,4.82
2017-09-22T15:13:58.203Z,4.00
2017-09-22T15:16:28.076Z,5.60
2017-09-22T15:18:57.712Z,4.63
2017-09-22T15:21:27.416Z,7.10
2017-09-22T15:23:57.003Z,5.15
2017-09-22T15:26:27.499Z,4.20
2017-09-22T15:28:58.208Z,5.82
2017-09-22T15:31:27.767Z,5.20
2017-09-22T15:33:57.307Z,5.12
2017-09-22T15:36:27.140Z,5.10
2017-09-22T15:38:57.212Z,5.60
2017-09-22T15:41:26.804Z,5.90
2017-09-22T15:43:56.343Z,5.00
2017-09-22T15:46:25.907Z,4.93
2017-09-22T15:48:56.537Z,6.12
2017-09-22T15:51:26.302Z,4.80
2017-09-22T15:53:56.644Z,4.75
2017-09-22T15:56:27.227Z,5.00
2017-09-22T15:59:01.230Z,5.45
2017-09-22T16:01:34.246Z,5.97
2017-09-22T16:04:03.916Z,5.15
2017-09-22T16:06:34.424Z,5.32
2017-09-22T16:09:05.120Z,4.80
2017-09-22T16:11:34.677Z,4.65
2017-09-22T16:14:05.663Z,4.68
2017-09-22T16:16:39.646Z,6.05
2017-09-22T16:19:10.135Z,4.50
2017-09-22T16:21:40.014Z,4.90
2017-09-22T16:24:10.013Z,7.10
2017-09-22T16:26:39.934Z,4.50
2017-09-22T16:29:11.556Z,5.00
2017-09-22T16:31:41.683Z,4.90
2017-09-22T16:34:12.042Z,4.97
2017-09-22T16:36:41.591Z,5.60
2017-09-22T16:39:11.196Z,6.65
2017-09-22T16:41:42.158Z,5.75
2017-09-22T16:44:12.580Z,7.37
2017-09-22T16:46:43.104Z,7.25
2017-09-22T16:49:13.217Z,7.40
2017-09-22T16:51:43.755Z,5.37
2017-09-22T16:54:13.761Z,7.67
2017-09-22T16:56:44.800Z,6.67
2017-09-22T16:59:14.946Z,7.37
2017-09-22T17:01:46.530Z,8.38
2017-09-22T17:04:16.607Z,7.17
2017-09-22T17:06:46.243Z,7.23
2017-09-22T17:09:16.200Z,8.20
2017-09-22T17:11:46.209Z,8.30
2017-09-22T17:14:16.602Z,6.70
2017-09-22T17:16:48.974Z,6.78
2017-09-22T17:19:18.591Z,6.37
2017-09-22T17:21:48.551Z,5.03
2017-09-22T17:24:19.136Z,7.37
2017-09-22T17:26:48.840Z,7.50
2017-09-22T17:29:18.543Z,6.57
2017-09-22T17:31:49.059Z,8.07
2017-09-22T17:34:19.684Z,5.68
2017-09-22T17:36:49.284Z,6.10
2017-09-22T17:39:19.084Z,8.52
2017-09-22T17:41:49.167Z,8.95
2017-09-22T17:44:18.754Z,10.50
2017-09-22T17:46:49.096Z,11.27
2017-09-22T17:49:18.743Z,13.23
2017-09-22T17:51:48.569Z,10.32
2017-09-22T17:54:18.559Z,10.88
2017-09-22T17:56:48.344Z,10.07
2017-09-22T17:59:17.964Z,9.40
2017-09-22T18:01:47.923Z,10.63
2017-09-22T18:04:19.271Z,11.88
2017-09-22T18:06:49.759Z,10.85
2017-09-22T18:09:19.380Z,9.85
2017-09-22T18:11:50.270Z,10.32
2017-09-22T18:14:21.193Z,8.00
2017-09-22T18:16:51.710Z,8.50
2017-09-22T18:19:22.566Z,9.70
2017-09-22T18:21:52.636Z,11.00
2017-09-22T18:24:24.066Z,8.75
2017-09-22T18:26:54.477Z,14.90
2017-09-22T18:29:24.399Z,11.73
2017-09-22T18:31:54.534Z,9.52
2017-09-22T18:34:25.065Z,12.50
2017-09-22T18:36:55.246Z,8.85
2017-09-22T18:39:25.257Z,8.25
2017-09-22T18:41:56.057Z,8.85
2017-09-22T18:44:25.754Z,10.15
2017-09-22T18:46:55.414Z,10.73
2017-09-22T18:49:27.901Z,12.03
2017-09-22T18:51:57.727Z,11.23
2017-09-22T18:54:27.940Z,12.00
2017-09-22T18:56:58.139Z,10.20
2017-09-22T18:59:28.777Z,10.90
2017-09-22T19:01:59.931Z,10.70
2017-09-22T19:04:30.295Z,8.07
2017-09-22T19:06:59.886Z,9.20
2017-09-22T19:09:29.491Z,7.77
2017-09-22T19:11:59.827Z,6.25
2017-09-22T19:14:29.723Z,10.80
2017-09-22T19:16:59.306Z,10.13
2017-09-22T19:19:28.890Z,9.93
2017-09-22T19:21:58.519Z,11.60
2017-09-22T19:24:28.956Z,9.18
2017-09-22T19:26:59.587Z,8.95
2017-09-22T19:29:29.947Z,9.15
2017-09-22T19:31:59.619Z,10.00
2017-09-22T19:34:30.050Z,11.30
2017-09-22T19:37:00.093Z,14.85
2017-09-22T19:39:30.580Z,12.25
2017-09-22T19:42:00.839Z,12.68
2017-09-22T19:44:30.657Z,11.38
2017-09-22T19:47:00.552Z,12.07
2017-09-22T19:49:30.199Z,14.30
2017-09-22T19:51:59.830Z,11.87
2017-09-22T19:54:30.212Z,11.02
2017-09-22T19:57:00.040Z,12.15
2017-09-22T19:59:30.050Z,13.48
2017-09-22T20:02:00.723Z,13.18
2017-09-22T20:04:30.593Z,15.45
2017-09-22T20:07:00.870Z,17.48
2017-09-22T20:09:31.028Z,10.95
2017-09-22T20:12:00.676Z,14.98
2017-09-22T20:14:30.286Z,12.70
2017-09-22T20:17:00.098Z,12.57
2017-09-22T20:19:31.015Z,12.10
2017-09-22T20:22:01.573Z,12.60
2017-09-22T20:24:31.134Z,15.45
2017-09-22T20:27:00.685Z,14.40
2017-09-22T20:29:30.325Z,13.82
2017-09-22T20:32:01.006Z,11.57
2017-09-22T20:34:30.756Z,10.30
2017-09-22T20:37:00.437Z,9.90
2017-09-22T20:39:32.803Z,10.50
2017-09-22T20:42:02.787Z,8.33
2017-09-22T20:44:32.488Z,11.77
2017-09-22T20:47:02.154Z,11.10
2017-09-22T20:49:32.230Z,9.02
2017-09-22T20:52:02.831Z,9.63
2017-09-22T20:54:33.032Z,9.32
2017-09-22T20:57:02.814Z,14.05
2017-09-22T20:59:33.348Z,10.20
2017-09-22T21:02:04.530Z,11.32
2017-09-22T21:04:34.563Z,8.03
2017-09-22T21:07:04.134Z,10.90
2017-09-22T21:09:33.676Z,9.37
2017-09-22T21:12:04.594Z,10.07
2017-09-22T21:14:44.428Z,9.67
2017-09-22T21:17:15.059Z,8.33
2017-09-22T21:19:44.544Z,7.57
2017-09-22T21:22:14.074Z,9.10
2017-09-22T21:24:44.135Z,10.05
2017-09-22T21:27:14.413Z,12.37
2017-09-22T21:29:43.935Z,10.18
2017-09-22T21:32:13.738Z,8.70
2017-09-22T21:34:43.305Z,9.80
2017-09-22T21:37:12.881Z,8.90
2017-09-22T21:39:43.139Z,12.10
2017-09-22T21:42:12.640Z,8.27
2017-09-22T21:44:42.458Z,10.23
2017-09-22T21:47:12.116Z,12.90
2017-09-22T21:49:42.189Z,9.98
2017-09-22T21:52:12.155Z,9.50
2017-09-22T21:54:41.687Z,6.62
2017-09-22T21:57:11.736Z,7.47
2017-09-22T21:59:41.651Z,12.30
2017-09-22T22:02:11.225Z,8.53
2017-09-22T22:05:44.376Z,8.67
2017-09-22T22:08:13.903Z,10.17
2017-09-22T22:10:45.319Z,11.23
2017-09-22T22:13:15.139Z,9.35
2017-09-22T22:15:44.645Z,6.43
2017-09-22T22:18:14.177Z,6.60
2017-09-22T22:20:44.441Z,9.63
2017-09-22T22:23:13.958Z,6.97
2017-09-22T22:25:43.503Z,8.75
2017-09-22T22:28:13.814Z,7.15
2017-09-22T22:30:43.767Z,8.00
2017-09-22T22:33:14.679Z,9.27
2017-09-22T22:35:44.563Z,10.10
2017-09-22T22:38:16.124Z,7.20
2017-09-22T22:40:46.644Z,8.18
2017-09-22T22:43:16.895Z,9.10
2017-09-22T22:45:47.768Z,10.40
2017-09-22T22:48:18.508Z,7.05
2017-09-22T22:50:48.800Z,9.20
2017-09-22T22:53:19.252Z,8.80
2017-09-22T22:55:49.023Z,7.30
2017-09-22T22:58:19.113Z,7.10
2017-09-22T23:00:49.462Z,6.95
2017-09-22T23:03:19.775Z,7.70
2017-09-22T23:05:49.959Z,7.20
2017-09-22T23:08:20.970Z,6.22
2017-09-22T23:10:50.950Z,8.82
2017-09-22T23:13:21.468Z,8.68
2017-09-22T23:15:51.407Z,6.93
2017-09-22T23:18:22.130Z,8.70
2017-09-22T23:20:52.329Z,9.13
2017-09-22T23:23:22.296Z,8.20
2017-09-22T23:25:53.420Z,8.50
2017-09-22T23:28:23.444Z,8.80
2017-09-22T23:30:53.235Z,12.77
2017-09-22T23:33:23.449Z,7.00
2017-09-22T23:35:53.276Z,7.57
2017-09-22T23:38:23.145Z,10.17
2017-09-22T23:40:53.479Z,8.63
2017-09-22T23:43:23.541Z,8.45
2017-09-22T23:45:53.370Z,8.18
2017-09-22T23:48:23.324Z,10.30
2017-09-22T23:50:53.464Z,9.52
2017-09-22T23:53:23.635Z,7.60
2017-09-22T23:55:53.971Z,9.65
2017-09-22T23:58:24.579Z,7.12
